Time;durP1;ratioP1;P1;durP2;ratioP2;P2;SDS_P1;SDS_P2;PMS_P1;PMS_P2;Temp;Humidity;BMP_temperature;BMP_pressure;BME280_temperature;BME280_humidity;BME280_pressure;Samples;Min_cycle;Max_cycle;Signal;HPM_P1;HPM_P2
2023/07/22 00:01:14;;;;;;;3.72;1.40;;;;;;;24.25;100.00;100005.06;5010824;28;20053;-73
2023/07/22 00:03:39;;;;;;;2.40;1.77;;;;;;;24.48;100.00;100049.22;5015936;28;20050;-75
2023/07/22 00:06:10;;;;;;;2.65;1.42;;;;;;;24.36;100.00;100042.78;4998023;28;20026;-74
2023/07/22 00:08:36;;;;;;;2.47;1.70;;;;;;;24.42;100.00;100027.16;5002958;28;20030;-74
2023/07/22 00:11:03;;;;;;;2.80;1.73;;;;;;;24.57;100.00;100045.97;5020671;28;20069;-73
2023/07/22 00:13:28;;;;;;;12.88;2.45;;;;;;;24.03;100.00;99944.75;5010600;28;20056;-73
2023/07/22 00:15:54;;;;;;;3.90;2.10;;;;;;;23.91;100.00;99927.63;5008504;28;20045;-73
2023/07/22 00:18:20;;;;;;;4.45;2.90;;;;;;;24.49;100.00;100067.03;5018872;28;20049;-73
2023/07/22 00:20:46;;;;;;;2.88;1.70;;;;;;;24.04;100.00;100072.44;4990913;28;20077;-73
2023/07/22 00:23:11;;;;;;;2.97;1.55;;;;;;;24.63;100.00;100360.38;4993585;28;20100;-73
2023/07/22 00:25:37;;;;;;;2.72;1.95;;;;;;;24.88;100.00;100481.50;5004005;28;20058;-76
2023/07/22 00:28:03;;;;;;;3.85;2.60;;;;;;;24.61;100.00;100433.88;5004373;28;20038;-73
2023/07/22 00:30:29;;;;;;;2.20;1.33;;;;;;;24.39;100.00;100286.66;4991674;28;20038;-73
2023/07/22 00:32:55;;;;;;;4.25;2.22;;;;;;;24.90;100.00;100412.47;4993119;28;20026;-73
2023/07/22 00:35:21;;;;;;;2.80;1.40;;;;;;;25.02;100.00;100441.28;4997709;28;20058;-73
2023/07/22 00:37:46;;;;;;;5.07;2.13;;;;;;;24.54;100.00;100365.41;4994302;28;20050;-74
2023/07/22 00:40:12;;;;;;;3.70;1.02;;;;;;;23.96;100.00;100380.31;5007964;28;20053;-72
2023/07/22 00:42:38;;;;;;;1.85;1.30;;;;;;;23.50;100.00;100404.25;5014341;28;20050;-73
2023/07/22 00:45:05;;;;;;;4.28;1.42;;;;;;;22.93;100.00;100400.03;5002861;28;20057;-74
2023/07/22 00:47:32;;;;;;;9.18;1.67;;;;;;;22.84;100.00;100461.19;5016871;28;20026;-74
2023/07/22 00:50:00;;;;;;;2.78;1.77;;;;;;;22.40;100.00;100489.16;4993213;28;20050;-73
2023/07/22 00:52:25;;;;;;;4.28;1.38;;;;;;;22.29;100.00;100478.16;4996809;28;20074;-74
2023/07/22 00:54:51;;;;;;;1.27;0.75;;;;;;;22.08;100.00;100515.59;5001797;28;20042;-73
2023/07/22 00:57:17;;;;;;;4.03;1.27;;;;;;;22.07;100.00;100492.47;5003623;28;20035;-73
2023/07/22 00:59:43;;;;;;;4.75;1.10;;;;;;;21.49;100.00;100380.28;4991354;28;20037;-74
2023/07/22 01:02:09;;;;;;;0.95;0.60;;;;;;;21.50;100.00;100419.41;5015452;28;20044;-73
2023/07/22 01:04:35;;;;;;;0.50;0.50;;;;;;;21.84;100.00;100441.91;5000432;28;20166;-74
2023/07/22 01:07:06;;;;;;;0.95;0.38;;;;;;;21.55;100.00;100433.41;5011702;28;20046;-73
2023/07/22 01:09:39;;;;;;;3.40;0.70;;;;;;;21.25;100.00;100433.81;5011340;28;20100;-74
2023/07/22 01:12:08;;;;;;;2.70;0.50;;;;;;;20.87;100.00;100385.66;4990713;28;20061;-74
2023/07/22 01:14:40;;;;;;;0.32;0.32;;;;;;;20.55;100.00;100346.13;4998620;28;20540;-73
2023/07/22 01:17:08;;;;;;;2.15;0.90;;;;;;;21.21;100.00;100423.34;5010458;28;20050;-74
2023/07/22 01:19:34;;;;;;;3.47;1.45;;;;;;;20.35;100.00;100331.84;4995619;28;20078;-72
2023/07/22 01:22:05;;;;;;;0.35;0.20;;;;;;;20.47;100.00;100329.59;4999049;28;20050;-74
2023/07/22 01:24:31;;;;;;;0.55;0.40;;;;;;;20.04;100.00;100313.59;5011545;28;20046;-75
2023/07/22 01:26:58;;;;;;;0.57;0.30;;;;;;;19.97;100.00;100281.03;4998818;28;20541;-74
2023/07/22 01:29:24;;;;;;;1.40;0.60;;;;;;;20.14;100.00;100330.09;5001311;28;20049;-74
2023/07/22 01:31:54;;;;;;;3.92;0.65;;;;;;;20.57;100.00;100370.97;5024878;28;20054;-74
2023/07/22 01:34:24;;;;;;;1.10;0.47;;;;;;;20.31;100.00;100289.41;5008509;28;20049;-75
2023/07/22 01:36:50;;;;;;;0.32;0.28;;;;;;;20.37;100.00;100313.13;5008843;28;20054;-74
2023/07/22 01:39:16;;;;;;;0.50;0.20;;;;;;;20.05;100.00;100309.16;5004101;28;20127;-73
2023/07/22 01:41:42;;;;;;;4.93;0.52;;;;;;;19.50;100.00;100224.31;5014597;28;20046;-74
2023/07/22 01:44:10;;;;;;;3.50;0.60;;;;;;;19.88;100.00;100269.84;4999816;28;20039;-74
2023/07/22 01:46:36;;;;;;;3.40;0.40;;;;;;;20.27;100.00;100355.28;5014399;28;20038;-74
2023/07/22 01:49:06;;;;;;;1.08;0.13;;;;;;;20.57;100.00;100395.81;5013513;28;20045;-74
2023/07/22 01:51:32;;;;;;;1.77;0.50;;;;;;;20.15;100.00;100267.88;5002655;28;20482;-74
2023/07/22 01:53:57;;;;;;;1.70;0.40;;;;;;;19.81;100.00;100266.59;5021995;28;20048;-73
2023/07/22 01:56:23;;;;;;;2.38;0.65;;;;;;;20.38;100.00;100345.03;5021765;28;20028;-75
2023/07/22 01:58:49;;;;;;;0.43;0.32;;;;;;;20.35;100.00;100267.03;5006926;28;20486;-73
2023/07/22 02:01:16;;;;;;;4.05;3.15;;;;;;;19.64;100.00;100107.50;4997385;28;20057;-73
2023/07/22 02:03:42;;;;;;;0.75;0.73;;;;;;;20.31;100.00;100262.75;5002284;28;20049;-74
2023/07/22 02:06:08;;;;;;;3.40;2.88;;;;;;;19.92;100.00;100226.19;5007188;28;20045;-73
2023/07/22 02:08:33;;;;;;;0.63;0.40;;;;;;;20.11;100.00;100250.25;5024419;28;20404;-73
2023/07/22 02:11:04;;;;;;;0.55;0.22;;;;;;;19.42;100.00;100128.84;4999841;28;20062;-73
2023/07/22 02:13:30;;;;;;;1.27;0.40;;;;;;;20.26;100.00;100244.31;5014597;28;20493;-74
2023/07/22 02:15:56;;;;;;;0.75;0.40;;;;;;;20.35;100.00;100241.25;5015275;28;20056;-73
2023/07/22 02:18:21;;;;;;;1.02;0.55;;;;;;;20.44;100.00;100243.50;5026923;28;20483;-73
2023/07/22 02:20:47;;;;;;;1.90;0.65;;;;;;;20.24;100.00;100230.16;5012461;28;20030;-73
2023/07/22 02:23:12;;;;;;;1.40;0.47;;;;;;;19.88;100.00;100174.88;5007343;28;20046;-74
2023/07/22 02:25:38;;;;;;;1.08;0.57;;;;;;;19.49;100.00;100132.13;4995578;28;20120;-74
2023/07/22 02:28:03;;;;;;;0.68;0.40;;;;;;;20.31;100.00;100231.63;5015297;28;20348;-73
2023/07/22 02:30:29;;;;;;;0.45;0.35;;;;;;;20.43;100.00;100219.56;5017258;28;20543;-73
2023/07/22 02:32:54;;;;;;;1.23;1.02;;;;;;;19.80;100.00;100132.56;5021351;28;20056;-73
2023/07/22 02:35:20;;;;;;;6.13;0.43;;;;;;;19.79;100.00;100132.66;5018850;28;20433;-74
2023/07/22 02:37:45;;;;;;;1.35;0.68;;;;;;;20.07;100.00;100171.44;5019570;28;20083;-73
2023/07/22 02:40:11;;;;;;;0.75;0.40;;;;;;;20.64;100.00;100268.44;5013468;28;20046;-73
2023/07/22 02:42:37;;;;;;;1.65;0.50;;;;;;;20.03;100.00;100168.88;5023326;28;20044;-72
2023/07/22 02:45:04;;;;;;;1.00;0.55;;;;;;;20.74;100.00;100279.56;5021777;28;20034;-73
2023/07/22 02:47:32;;;;;;;0.93;0.73;;;;;;;20.17;100.00;100183.41;5025381;28;20033;-74
2023/07/22 02:49:57;;;;;;;0.90;0.50;;;;;;;20.74;100.00;100290.25;5013935;28;20133;-74
2023/07/22 02:52:23;;;;;;;2.70;1.27;;;;;;;20.21;100.00;100196.53;5021246;28;20045;-75
2023/07/22 02:55:08;;;;;;;0.90;0.57;;;;;;;20.77;100.00;100304.31;5018062;28;20054;-75
2023/07/22 02:57:34;;;;;;;1.13;0.63;;;;;;;20.69;100.00;100286.91;5020693;28;20444;-73
2023/07/22 03:00:00;;;;;;;1.95;0.85;;;;;;;20.69;100.00;100282.44;5022725;28;20033;-74
2023/07/22 03:02:25;;;;;;;1.83;1.23;;;;;;;20.75;100.00;100300.00;5021584;28;20084;-74
2023/07/22 03:04:51;;;;;;;1.85;0.57;;;;;;;20.09;100.00;100199.75;5020609;28;20045;-74
2023/07/22 03:07:16;;;;;;;2.03;0.95;;;;;;;20.40;100.00;100257.03;5021636;28;20433;-73
2023/07/22 03:09:42;;;;;;;2.15;0.90;;;;;;;20.50;100.00;100289.47;5016701;28;20506;-73
2023/07/22 03:12:07;;;;;;;1.60;0.88;;;;;;;20.65;100.00;100321.72;5018787;28;20492;-73
2023/07/22 03:14:37;;;;;;;1.33;0.50;;;;;;;20.10;100.00;100222.75;5022708;28;20420;-74
2023/07/22 03:17:05;;;;;;;0.70;0.40;;;;;;;20.77;100.00;100333.66;5020814;28;20046;-73
2023/07/22 03:19:31;;;;;;;1.73;0.77;;;;;;;20.83;100.00;100344.03;5049780;28;20046;-73
2023/07/22 03:21:56;;;;;;;2.22;1.65;;;;;;;20.87;100.00;100350.13;5006861;28;20053;-72
2023/07/22 03:24:22;;;;;;;2.25;0.50;;;;;;;20.11;100.00;100227.19;5014592;28;20064;-73
2023/07/22 03:26:47;;;;;;;2.03;0.77;;;;;;;20.84;100.00;100361.78;5017431;28;20380;-74
2023/07/22 03:29:13;;;;;;;1.33;1.23;;;;;;;20.80;100.00;100359.31;5010327;28;20046;-73
2023/07/22 03:31:39;;;;;;;0.57;0.45;;;;;;;20.18;100.00;100252.63;5018710;28;20045;-74
2023/07/22 03:34:04;;;;;;;0.77;0.63;;;;;;;20.92;100.00;100368.59;5012052;28;20143;-73
2023/07/22 03:36:33;;;;;;;0.75;0.40;;;;;;;20.32;100.00;100246.72;5015295;28;20054;-73
2023/07/22 03:38:59;;;;;;;1.85;0.93;;;;;;;20.93;100.00;100348.97;5019998;28;20025;-74
2023/07/22 03:41:25;;;;;;;0.95;0.65;;;;;;;20.37;100.00;100258.03;5020061;28;20087;-75
2023/07/22 03:43:50;;;;;;;2.55;1.08;;;;;;;21.04;100.00;100354.72;5024585;28;20463;-73
2023/07/22 03:46:16;;;;;;;0.90;0.68;;;;;;;20.41;100.00;100267.59;5018855;28;20762;-74
2023/07/22 03:48:41;;;;;;;1.55;1.00;;;;;;;20.56;100.00;100313.25;5022853;28;20037;-74
2023/07/22 03:51:07;;;;;;;1.70;0.47;;;;;;;20.27;100.00;100291.31;5015534;28;20026;-75
2023/07/22 03:53:32;;;;;;;1.60;0.60;;;;;;;20.27;100.00;100325.09;5019203;28;20113;-74
2023/07/22 03:55:57;;;;;;;1.20;0.60;;;;;;;20.60;100.00;100363.72;5023301;28;20401;-74
2023/07/22 03:58:23;;;;;;;0.98;0.75;;;;;;;20.94;100.00;100402.28;5011508;28;20116;-74
2023/07/22 04:00:50;;;;;;;1.25;0.82;;;;;;;20.86;100.00;100397.28;5016445;28;20076;-74
2023/07/22 04:03:16;;;;;;;1.27;0.50;;;;;;;20.95;100.00;100401.31;5013757;28;20068;-74
2023/07/22 04:05:41;;;;;;;1.20;0.43;;;;;;;20.94;100.00;100388.94;5018831;28;20469;-74
2023/07/22 04:08:07;;;;;;;0.85;0.55;;;;;;;20.33;100.00;100284.88;5019515;28;20037;-74
2023/07/22 04:10:32;;;;;;;1.02;0.55;;;;;;;20.76;100.00;100353.25;5006111;28;20057;-73
2023/07/22 04:12:57;;;;;;;3.97;0.93;;;;;;;20.44;100.00;100295.97;5021045;28;20095;-73
2023/07/22 04:15:23;;;;;;;3.20;0.88;;;;;;;20.96;100.00;100389.75;5017885;28;20045;-74
2023/07/22 04:17:48;;;;;;;2.55;1.02;;;;;;;20.37;100.00;100292.69;5011768;28;20036;-73
2023/07/22 04:20:14;;;;;;;4.70;0.77;;;;;;;20.29;100.00;100253.97;4992535;28;20810;-78
2023/07/22 04:22:40;;;;;;;0.50;0.40;;;;;;;20.58;100.00;100285.59;5007756;28;20141;-78
2023/07/22 04:25:06;;;;;;;1.15;0.45;;;;;;;22.85;100.00;100347.84;5009167;28;20041;-66
2023/07/22 04:27:31;;;;;;;1.85;0.60;;;;;;;23.83;100.00;100307.78;5004231;28;20041;-72
2023/07/22 04:29:56;;;;;;;1.65;0.70;;;;;;;23.09;100.00;100185.16;4999086;28;20516;-66
2023/07/22 04:32:22;;;;;;;1.48;0.70;;;;;;;23.26;100.00;100190.41;5004795;28;20057;-69
2023/07/22 04:34:48;;;;;;;1.20;0.60;;;;;;;23.58;100.00;100195.75;5005075;28;20536;-68
2023/07/22 04:37:13;;;;;;;1.73;0.68;;;;;;;23.52;100.00;100199.63;5003740;28;20053;-67
2023/07/22 04:39:39;;;;;;;3.65;1.13;;;;;;;23.82;100.00;100267.69;5004721;28;20752;-73
2023/07/22 04:42:05;;;;;;;2.80;1.13;;;;;;;23.80;100.00;100284.69;5010501;28;20038;-69
2023/07/22 04:44:30;;;;;;;1.70;0.73;;;;;;;23.83;100.00;100254.16;5007095;28;20051;-83
2023/07/22 04:46:56;;;;;;;3.33;1.38;;;;;;;22.76;100.00;100285.00;5013880;28;20042;-81
2023/07/22 04:49:22;;;;;;;0.95;0.70;;;;;;;22.02;100.00;100237.94;5014741;28;20600;-81
2023/07/22 04:51:48;;;;;;;0.73;0.60;;;;;;;22.63;100.00;100351.66;5004156;28;20104;-81
2023/07/22 04:54:14;;;;;;;3.75;0.88;;;;;;;22.18;100.00;100291.50;5004245;28;20053;-86
2023/07/22 04:56:41;;;;;;;2.33;1.00;;;;;;;22.59;100.00;100349.19;5007612;28;20046;-80
2023/07/22 04:59:07;;;;;;;1.67;0.95;;;;;;;21.98;100.00;100272.91;5003484;28;20057;-80
2023/07/22 05:01:32;;;;;;;1.35;0.65;;;;;;;22.51;100.00;100355.81;5004789;28;20036;-78
2023/07/22 05:03:58;;;;;;;4.32;2.00;;;;;;;21.81;100.00;100265.75;5014462;28;20680;-79
2023/07/22 05:06:23;;;;;;;4.47;2.85;;;;;;;21.91;100.00;100269.69;5010649;28;20061;-77
2023/07/22 05:08:50;;;;;;;2.88;1.15;;;;;;;22.26;100.00;100363.31;5013836;28;20127;-79
2023/07/22 05:11:16;;;;;;;1.25;0.65;;;;;;;22.28;100.00;100356.09;5008690;28;20029;-79
2023/07/22 05:13:42;;;;;;;1.50;0.82;;;;;;;21.89;100.00;100277.78;5009808;28;20042;-80
2023/07/22 05:16:07;;;;;;;1.50;0.68;;;;;;;22.52;100.00;100327.25;5017927;28;20041;-78
2023/07/22 05:18:33;;;;;;;1.17;0.73;;;;;;;22.71;100.00;100352.13;5016299;28;20486;-80
2023/07/22 05:20:58;;;;;;;6.25;0.90;;;;;;;23.16;100.00;100342.66;5009219;28;20458;-79
2023/07/22 05:23:24;;;;;;;3.05;1.30;;;;;;;23.55;100.00;100362.88;5016772;28;20037;-80
2023/07/22 05:25:53;;;;;;;1.83;0.70;;;;;;;22.29;100.00;100184.94;5009823;28;20072;-76
2023/07/22 05:28:19;;;;;;;6.78;2.10;;;;;;;23.67;100.00;100328.31;5007117;28;20498;-77
2023/07/22 05:30:45;;;;;;;1.50;0.75;;;;;;;23.35;100.00;100218.50;5013739;28;20046;-79
2023/07/22 05:33:10;;;;;;;0.88;0.50;;;;;;;24.42;100.00;100318.69;5048048;28;20110;-78
2023/07/22 05:35:36;;;;;;;4.28;1.33;;;;;;;24.59;100.00;100239.91;5016312;28;20785;-77
2023/07/22 05:38:04;;;;;;;1.83;0.88;;;;;;;24.92;100.00;100190.44;5020705;28;20394;-78
2023/07/22 05:40:29;;;;;;;13.45;2.95;;;;;;;25.39;100.00;100297.56;5018010;28;20049;-77
2023/07/22 05:42:55;;;;;;;1.23;0.70;;;;;;;25.67;100.00;100291.28;5019194;28;20394;-78
2023/07/22 05:45:21;;;;;;;1.33;0.60;;;;;;;25.21;100.00;100191.28;5019075;28;20120;-79
2023/07/22 05:47:46;;;;;;;3.92;0.85;;;;;;;25.77;100.00;100244.97;5014920;28;20033;-80
2023/07/22 05:50:11;;;;;;;4.78;0.90;;;;;;;26.02;100.00;100282.75;5016127;28;20128;-79
2023/07/22 05:52:37;;;;;;;2.00;1.00;;;;;;;25.45;100.00;100113.59;5014684;28;20524;-81
2023/07/22 05:55:03;;;;;;;4.75;0.60;;;;;;;26.27;100.00;100209.34;5024041;28;20056;-80
2023/07/22 05:57:28;;;;;;;3.13;1.85;;;;;;;26.52;100.00;100221.06;5034149;28;20405;-78
2023/07/22 05:59:54;;;;;;;1.38;0.73;;;;;;;26.80;100.00;100278.41;5014740;28;20038;-78
2023/07/22 06:02:19;;;;;;;0.35;0.25;;;;;;;25.32;100.00;99998.06;5022354;28;20120;-80
2023/07/22 06:04:45;;;;;;;2.72;0.60;;;;;;;26.79;100.00;100201.31;5013178;28;20073;-78
2023/07/22 06:07:10;;;;;;;1.05;0.80;;;;;;;26.11;100.00;100188.00;5018632;28;20072;-78
2023/07/22 06:09:36;;;;;;;4.85;3.40;;;;;;;26.89;100.00;100186.22;5016338;28;20045;-79
2023/07/22 06:12:01;;;;;;;0.65;0.50;;;;;;;27.32;100.00;100299.88;5016050;28;20067;-78
2023/07/22 06:14:27;;;;;;;0.70;0.35;;;;;;;27.26;100.00;100272.50;5021652;28;20207;-78
2023/07/22 06:16:53;;;;;;;3.65;1.02;;;;;;;27.10;100.00;100210.72;5015654;28;20053;-80
2023/07/22 06:19:18;;;;;;;1.02;0.80;;;;;;;27.12;100.00;100233.88;5049660;28;20046;-78
2023/07/22 06:21:44;;;;;;;1.60;0.85;;;;;;;27.28;100.00;100243.59;5004941;28;20831;-79
2023/07/22 06:24:10;;;;;;;1.20;0.55;;;;;;;27.25;100.00;100322.78;5011784;28;20045;-78
2023/07/22 06:26:36;;;;;;;2.20;0.98;;;;;;;27.47;100.00;100300.56;5011396;28;20367;-78
2023/07/22 06:29:02;;;;;;;1.23;0.82;;;;;;;27.23;100.00;100295.13;5015559;28;20092;-78
2023/07/22 06:31:30;;;;;;;1.98;0.90;;;;;;;26.72;100.00;100260.97;5017969;28;20053;-78
2023/07/22 06:33:57;;;;;;;1.02;0.70;;;;;;;27.55;100.00;100310.78;5012632;28;20410;-76
2023/07/22 06:36:22;;;;;;;1.38;0.77;;;;;;;27.27;100.00;100236.47;5012404;28;20042;-78
2023/07/22 06:38:48;;;;;;;9.02;1.27;;;;;;;27.89;100.00;100306.53;5018403;28;20041;-78
2023/07/22 06:41:13;;;;;;;2.35;0.85;;;;;;;27.65;100.00;100305.59;5018173;28;20050;-79
2023/07/22 06:43:40;;;;;;;6.20;0.80;;;;;;;27.21;100.00;100240.50;5015547;28;20555;-79
2023/07/22 06:46:05;;;;;;;3.58;1.52;;;;;;;26.99;100.00;100262.66;5017734;28;20084;-77
2023/07/22 06:48:31;;;;;;;1.02;0.82;;;;;;;27.16;100.00;100230.00;5020031;28;20052;-78
2023/07/22 06:50:56;;;;;;;3.50;1.23;;;;;;;27.98;100.00;100327.41;5008168;28;20036;-79
2023/07/22 06:53:22;;;;;;;0.68;0.57;;;;;;;27.84;100.00;100305.13;5041441;28;20080;-79
2023/07/22 06:55:51;;;;;;;2.63;1.13;;;;;;;27.32;100.00;100261.25;5018588;28;20057;-78
2023/07/22 06:58:17;;;;;;;3.78;2.17;;;;;;;27.84;100.00;100300.63;5013096;28;20045;-79
2023/07/22 07:00:43;;;;;;;0.63;0.45;;;;;;;27.64;100.00;100268.84;5017598;28;20563;-78
2023/07/22 07:03:08;;;;;;;1.40;0.77;;;;;;;27.69;100.00;100302.56;5021451;28;20036;-79
2023/07/22 07:05:34;;;;;;;2.65;2.00;;;;;;;27.44;100.00;100243.31;5023782;28;20064;-79
2023/07/22 07:08:00;;;;;;;1.35;0.75;;;;;;;27.21;100.00;100307.84;5019347;28;20160;-79
2023/07/22 07:10:26;;;;;;;1.55;0.73;;;;;;;27.51;100.00;100242.78;5018175;28;20392;-78
2023/07/22 07:12:51;;;;;;;2.80;1.38;;;;;;;28.02;100.00;100303.75;5014089;28;20037;-78
2023/07/22 07:15:17;;;;;;;0.45;0.43;;;;;;;27.36;100.00;100235.81;5024672;28;20048;-77
2023/07/22 07:17:42;;;;;;;2.15;1.00;;;;;;;27.95;100.00;100307.88;5023426;28;21858;-79
2023/07/22 07:20:08;;;;;;;2.88;1.58;;;;;;;27.86;100.00;100309.47;5016889;28;20466;-80
2023/07/22 07:22:33;;;;;;;1.88;1.63;;;;;;;27.38;100.00;100208.75;5010801;28;20084;-77
2023/07/22 07:24:59;;;;;;;1.58;0.90;;;;;;;27.94;100.00;100273.81;5012940;28;20656;-79
2023/07/22 07:27:24;;;;;;;0.90;0.55;;;;;;;27.62;100.00;100219.56;5014051;28;20106;-78
2023/07/22 07:29:50;;;;;;;1.88;1.20;;;;;;;27.74;100.00;100275.25;5010996;28;20033;-76
2023/07/22 07:32:15;;;;;;;2.03;0.80;;;;;;;27.74;100.00;100289.59;4995702;28;20359;-77
2023/07/22 07:34:41;;;;;;;1.73;0.82;;;;;;;27.04;100.00;100186.91;5007126;28;20068;-79
2023/07/22 07:37:06;;;;;;;1.20;0.60;;;;;;;27.78;100.00;100292.94;5017564;28;20444;-78
2023/07/22 07:39:32;;;;;;;3.03;0.70;;;;;;;26.98;100.00;100212.47;5012625;28;20041;-79
2023/07/22 07:41:57;;;;;;;2.50;0.68;;;;;;;27.45;100.00;100296.28;5009993;28;20536;-79
2023/07/22 07:44:23;;;;;;;0.65;0.45;;;;;;;27.06;100.00;100220.00;5021379;28;20034;-77
2023/07/22 07:46:48;;;;;;;1.75;1.02;;;;;;;27.62;100.00;100270.78;5014049;28;20053;-78
2023/07/22 07:49:14;;;;;;;2.70;0.75;;;;;;;27.58;100.00;100259.34;5012213;28;20045;-79
2023/07/22 07:51:42;;;;;;;1.20;0.43;;;;;;;27.60;100.00;100216.97;5005438;28;20513;-81
2023/07/22 07:54:08;;;;;;;5.40;1.00;;;;;;;27.89;100.00;100278.69;5019439;28;20018;-78
2023/07/22 07:56:33;;;;;;;1.02;0.70;;;;;;;27.26;100.00;100183.56;5010491;28;20112;-77
2023/07/22 07:58:59;;;;;;;0.40;0.22;;;;;;;28.03;100.00;100256.09;5007601;28;20050;-78
2023/07/22 08:01:24;;;;;;;1.52;0.90;;;;;;;28.33;100.00;100239.38;5006884;28;20120;-78
2023/07/22 08:03:50;;;;;;;1.60;0.90;;;;;;;27.86;100.00;100193.50;4999750;28;20053;-79
2023/07/22 08:06:16;;;;;;;1.17;1.00;;;;;;;27.85;100.00;100255.63;5005895;28;20609;-78
2023/07/22 08:08:41;;;;;;;1.90;0.52;;;;;;;28.24;100.00;100258.97;5007775;28;20030;-79
2023/07/22 08:11:08;;;;;;;0.63;0.38;;;;;;;28.69;100.00;100269.94;5007151;28;20108;-77
2023/07/22 08:13:34;;;;;;;1.92;1.65;;;;;;;28.33;100.00;100170.06;5005929;28;20053;-80
2023/07/22 08:16:10;;;;;;;1.90;0.88;;;;;;;28.81;100.00;100272.53;5007513;28;20156;-78
2023/07/22 08:18:36;;;;;;;1.60;0.70;;;;;;;28.79;100.00;100277.19;5005760;28;20042;-77
2023/07/22 08:21:04;;;;;;;0.95;0.70;;;;;;;28.62;100.00;100258.75;5005661;28;20124;-76
2023/07/22 08:23:30;;;;;;;3.05;1.02;;;;;;;29.03;100.00;100262.72;5007383;28;20022;-78
2023/07/22 08:25:55;;;;;;;1.20;1.02;;;;;;;29.45;100.00;100269.25;5019950;28;20516;-78
2023/07/22 08:28:21;;;;;;;0.95;0.52;;;;;;;29.51;100.00;100280.53;5002801;28;20046;-80
2023/07/22 08:30:48;;;;;;;1.23;1.15;;;;;;;29.26;100.00;100279.81;5006438;28;20042;-77
2023/07/22 08:33:14;;;;;;;1.75;0.95;;;;;;;28.88;100.00;100182.91;5004026;28;20061;-78
2023/07/22 08:35:40;;;;;;;1.20;0.70;;;;;;;29.28;100.00;100261.63;5007559;28;20555;-80
2023/07/22 08:38:06;;;;;;;0.90;0.57;;;;;;;29.52;100.00;100269.59;5007145;28;20074;-80
2023/07/22 08:40:41;;;;;;;3.22;0.90;;;;;;;29.07;100.00;100191.25;5003272;28;20046;-78
2023/07/22 08:43:10;;;;;;;0.90;0.70;;;;;;;29.40;100.00;100186.78;5002878;28;20072;-80
2023/07/22 08:45:37;;;;;;;0.82;0.55;;;;;;;29.89;100.00;100255.75;5001632;28;20042;-79
2023/07/22 08:48:07;;;;;;;3.28;0.80;;;;;;;29.60;100.00;100202.22;5006698;28;20431;-77
2023/07/22 08:50:46;;;;;;;1.13;0.60;;;;;;;29.87;100.00;100219.84;5000372;28;20769;-77
2023/07/22 08:53:15;;;;;;;5.68;1.67;;;;;;;29.91;100.00;100245.69;5004950;28;20600;-77
2023/07/22 08:55:42;;;;;;;1.40;0.80;;;;;;;29.70;100.00;100261.00;5005171;28;20053;-79
2023/07/22 08:58:11;;;;;;;1.17;0.57;;;;;;;29.94;100.00;100260.78;5006890;28;20054;-77
2023/07/22 09:00:40;;;;;;;2.85;1.60;;;;;;;29.03;100.00;100203.25;4998240;28;20351;-79
2023/07/22 09:03:06;;;;;;;1.25;0.50;;;;;;;29.66;100.00;100157.56;5006719;28;20418;-77
2023/07/22 09:05:33;;;;;;;2.58;1.15;;;;;;;29.88;100.00;100251.34;5006984;28;20122;-79
2023/07/22 09:08:01;;;;;;;1.45;0.75;;;;;;;30.48;100.00;100249.00;5005962;28;20034;-78
2023/07/22 09:10:28;;;;;;;4.63;1.10;;;;;;;30.77;100.00;100238.34;5006140;28;20069;-78
2023/07/22 09:12:54;;;;;;;3.63;1.00;;;;;;;31.15;100.00;100257.66;5005307;28;20497;-78
2023/07/22 09:15:20;;;;;;;1.90;0.85;;;;;;;30.79;100.00;100168.63;4999789;28;20115;-78
2023/07/22 09:17:47;;;;;;;1.92;1.25;;;;;;;31.83;100.00;100257.88;5001313;28;20049;-76
2023/07/22 09:20:16;;;;;;;1.55;0.80;;;;;;;32.10;100.00;100238.19;5001268;28;20057;-78
2023/07/22 09:22:47;;;;;;;2.08;0.90;;;;;;;32.28;98.63;100249.19;5003254;28;20453;-81
2023/07/22 09:25:16;;;;;;;3.03;1.42;;;;;;;31.43;93.62;100264.22;4999899;28;20603;-81
2023/07/22 09:27:43;;;;;;;4.47;1.30;;;;;;;31.81;87.28;100162.16;4998497;28;20042;-79
2023/07/22 09:30:26;;;;;;;4.90;2.05;;;;;;;32.06;86.50;100224.06;5003961;28;20037;-79
2023/07/22 09:32:52;;;;;;;;;;;;;;;32.57;85.53;100260.06;5038270;28;20033;-79
2023/07/22 09:35:18;;;;;;;1.40;1.08;;;;;;;32.03;77.36;100196.31;4999603;28;20278;-78
2023/07/22 09:37:44;;;;;;;3.47;2.53;;;;;;;32.66;75.05;100252.88;5005553;28;20061;-79
2023/07/22 09:40:24;;;;;;;1.63;0.77;;;;;;;32.74;75.87;100261.16;5004963;28;20045;-78
2023/07/22 09:43:02;;;;;;;1.83;0.98;;;;;;;32.84;76.24;100266.56;5003397;28;20054;-79
2023/07/22 09:45:30;;;;;;;1.58;0.93;;;;;;;32.58;72.06;100189.25;4997672;28;20639;-79
2023/07/22 09:47:56;;;;;;;2.20;1.20;;;;;;;32.62;71.74;100267.78;5006218;28;20038;-78
2023/07/22 09:50:27;;;;;;;27.45;3.00;;;;;;;32.55;72.17;100158.81;5004017;28;20114;-78
2023/07/22 09:53:03;;;;;;;1.10;0.70;;;;;;;33.45;70.37;100229.81;5002400;28;20085;-79
2023/07/22 09:55:31;;;;;;;1.00;0.73;;;;;;;33.41;71.35;100174.84;5002420;28;20078;-78
2023/07/22 09:58:09;;;;;;;1.55;1.15;;;;;;;32.71;75.04;100163.59;5003130;28;20038;-78
2023/07/22 10:00:36;;;;;;;17.85;1.80;;;;;;;32.74;75.10;100166.03;5031395;28;20054;-79
2023/07/22 10:03:06;;;;;;;1.90;0.82;;;;;;;32.75;71.23;100144.13;4997700;28;20033;-77
2023/07/22 10:05:34;;;;;;;0.50;0.45;;;;;;;33.25;73.27;100178.25;5005840;28;20120;-80
2023/07/22 10:07:59;;;;;;;4.07;1.33;;;;;;;33.81;68.93;100236.19;5005930;28;20049;-82
2023/07/22 10:10:32;;;;;;;1.80;1.13;;;;;;;33.17;69.96;100246.13;4995158;28;20096;-77
2023/07/22 10:12:57;;;;;;;;;;;;;;;33.78;67.39;100244.66;5001217;28;20449;-76
2023/07/22 10:15:25;;;;;;;6.45;1.98;;;;;;;33.58;62.00;100151.44;5005617;28;19952;-76
2023/07/22 10:17:53;;;;;;;1.20;0.88;;;;;;;34.25;62.10;100209.03;5006080;28;20129;-81
2023/07/22 10:20:19;;;;;;;1.25;0.85;;;;;;;34.58;63.83;100220.16;5001609;28;20140;-77
2023/07/22 10:22:46;;;;;;;2.15;1.33;;;;;;;34.68;59.31;100223.69;5005927;28;20505;-78
2023/07/22 10:25:14;;;;;;;1.30;0.63;;;;;;;34.01;64.01;100198.78;4997740;28;20042;-79
2023/07/22 10:27:41;;;;;;;1.05;0.73;;;;;;;34.15;61.10;100127.41;5009724;28;20060;-84
2023/07/22 10:30:10;;;;;;;1.38;0.50;;;;;;;33.39;63.78;100127.91;5007881;28;20116;-77
2023/07/22 10:32:38;;;;;;;1.65;0.80;;;;;;;33.80;62.87;100182.75;5009983;28;20029;-76
2023/07/22 10:35:04;;;;;;;5.18;1.25;;;;;;;34.07;64.55;100138.25;5009252;28;20858;-80
2023/07/22 10:37:33;;;;;;;2.17;1.50;;;;;;;33.29;66.62;100152.44;5006353;28;20046;-79
2023/07/22 10:40:28;;;;;;;3.60;1.58;;;;;;;34.89;63.02;100215.97;5004887;28;20103;-77
2023/07/22 10:42:57;;;;;;;5.07;1.85;;;;;;;34.61;59.75;100230.78;5008959;28;20046;-80
2023/07/22 10:45:29;;;;;;;3.40;2.35;;;;;;;33.19;61.89;100073.66;5009358;28;20537;-80
2023/07/22 10:48:23;;;;;;;0.98;0.77;;;;;;;34.39;60.81;100223.94;5000209;28;20042;-77
2023/07/22 10:50:53;;;;;;;2.60;0.47;;;;;;;35.18;56.92;100216.63;4998908;28;20050;-77
2023/07/22 10:53:25;;;;;;;1.60;0.70;;;;;;;35.14;58.19;100223.44;4989133;28;20058;-80
2023/07/22 10:56:07;;;;;;;2.13;0.88;;;;;;;35.39;53.65;100225.22;4996950;28;20066;-79
2023/07/22 10:58:45;;;;;;;1.23;0.65;;;;;;;35.20;54.31;100220.06;4989116;28;20054;-79
2023/07/22 11:01:27;;;;;;;2.50;1.27;;;;;;;35.35;50.83;100218.38;4989113;28;20089;-78
2023/07/22 11:04:12;;;;;;;2.00;0.80;;;;;;;35.37;52.75;100216.34;4997348;28;20050;-80
2023/07/22 11:06:48;;;;;;;1.52;0.90;;;;;;;33.74;53.30;100099.00;4991149;28;20065;-77
2023/07/22 11:12:18;;;;;;;3.03;1.63;;;;;;;35.02;53.98;100138.28;5003057;28;20038;-79
2023/07/22 11:14:50;;;;;;;3.50;1.45;;;;;;;35.22;53.43;100210.69;4987648;28;20038;-76
2023/07/22 11:17:17;;;;;;;5.68;1.38;;;;;;;35.35;52.66;100192.97;4988754;28;20050;-77
2023/07/22 11:19:43;;;;;;;1.15;1.00;;;;;;;35.12;54.29;100201.75;5002010;28;20037;-77
2023/07/22 11:22:10;;;;;;;2.97;1.55;;;;;;;35.02;58.41;100195.56;4997154;28;20077;-82